Time;durP1;ratioP1;P1;durP2;ratioP2;P2;SDS_P1;SDS_P2;PMS_P1;PMS_P2;Temp;Humidity;BMP_temperature;BMP_pressure;BME280_temperature;BME280_humidity;BME280_pressure;Samples;Min_cycle;Max_cycle;Signal;HPM_P1;HPM_P2
2023/04/05 00:03:54;;;;;;;92.00;36.97;;;;;;;2.18;89.61;101419.27;5078191;55;1141030;-71
2023/04/05 00:09:02;;;;;;;104.23;41.37;;;;;;;2.11;89.21;101430.34;5013941;56;1138686;-71
2023/04/05 00:14:08;;;;;;;94.67;39.80;;;;;;;2.02;89.23;101437.10;5070690;56;1140876;-75
2023/04/05 00:19:14;;;;;;;95.73;35.33;;;;;;;1.99;90.36;101433.27;5047349;56;1139157;-72
2023/04/05 00:24:20;;;;;;;86.90;35.00;;;;;;;1.99;90.73;101435.43;5037724;56;1138757;-71
2023/04/05 00:29:26;;;;;;;73.02;28.20;;;;;;;2.01;90.87;101429.73;4983219;57;1139005;-72
2023/04/05 00:34:32;;;;;;;72.53;25.83;;;;;;;1.91;90.49;101423.51;4951955;56;1138986;-73
2023/04/05 00:39:41;;;;;;;71.03;26.50;;;;;;;1.82;90.70;101410.28;4943533;58;1138835;-67
2023/04/05 00:44:46;;;;;;;79.83;28.67;;;;;;;1.80;90.82;101412.08;5006223;56;1138843;-70
2023/04/05 00:49:52;;;;;;;65.57;23.83;;;;;;;1.81;91.12;101407.27;5057603;56;1138993;-73
2023/04/05 00:54:58;;;;;;;87.97;29.77;;;;;;;1.73;91.17;101396.17;5090461;56;1138757;-75
2023/04/05 01:00:08;;;;;;;65.13;25.43;;;;;;;1.64;91.13;101394.69;5006362;56;1138765;-72
2023/04/05 01:05:52;;;;;;;85.87;33.33;;;;;;;1.64;91.44;101384.70;4916759;56;1138776;-70
2023/04/05 01:11:03;;;;;;;70.53;26.43;;;;;;;1.67;91.58;101389.39;4912863;58;1138918;-70
2023/04/05 01:16:10;;;;;;;55.03;22.50;;;;;;;1.69;91.59;101378.44;4959618;57;1138754;-68
2023/04/05 01:21:37;;;;;;;59.87;22.40;;;;;;;1.65;91.28;101377.28;4932830;57;1138700;-68
2023/04/05 01:27:10;;;;;;;75.17;25.60;;;;;;;1.54;91.43;101364.97;4954657;58;1138921;-69
2023/04/05 01:32:29;;;;;;;70.80;26.87;;;;;;;1.37;91.14;101367.60;4952027;58;1138654;-68
2023/04/05 01:37:37;;;;;;;69.13;23.00;;;;;;;1.33;91.78;101363.36;5005874;57;1138974;-69
2023/04/05 01:42:48;;;;;;;53.87;20.93;;;;;;;1.31;91.94;101359.93;5017518;56;1138958;-64
2023/04/05 01:47:53;;;;;;;35.27;13.73;;;;;;;1.28;92.20;101346.12;4991474;57;1138932;-68
2023/04/05 01:52:59;;;;;;;43.57;15.97;;;;;;;1.23;92.14;101352.74;5033028;57;1138839;-67
2023/04/05 01:58:05;;;;;;;65.27;22.87;;;;;;;1.10;91.90;101351.34;5000871;57;1139028;-65
2023/04/05 02:03:11;;;;;;;52.53;19.67;;;;;;;1.03;92.54;101353.27;5019446;56;1138663;-70
2023/04/05 02:08:16;;;;;;;55.30;18.47;;;;;;;0.91;92.63;101352.28;5035497;56;1138802;-70
2023/04/05 02:13:22;;;;;;;43.70;16.60;;;;;;;0.88;93.65;101356.25;5033668;56;1143329;-70
2023/04/05 02:18:31;;;;;;;41.10;14.53;;;;;;;0.82;93.74;101355.53;5031400;57;1138767;-68
2023/04/05 02:23:38;;;;;;;46.35;16.77;;;;;;;0.83;94.14;101347.69;5009676;57;1138889;-64
2023/04/05 02:28:43;;;;;;;27.87;10.63;;;;;;;0.69;94.11;101349.33;5022275;57;1138936;-70
2023/04/05 02:33:49;;;;;;;36.35;12.53;;;;;;;0.52;94.96;101337.59;5068114;56;1138819;-70
2023/04/05 02:38:55;;;;;;;30.60;11.08;;;;;;;0.43;95.61;101339.97;5109724;56;1138936;-71
2023/04/05 02:44:01;;;;;;;25.57;11.03;;;;;;;0.46;96.57;101337.75;5086495;56;1138833;-68
2023/04/05 02:49:08;;;;;;;28.70;10.90;;;;;;;0.60;98.23;101336.53;5023499;56;1138775;-68
2023/04/05 02:54:13;;;;;;;30.13;11.33;;;;;;;0.73;98.80;101323.22;5048713;56;1138775;-68
2023/04/05 02:59:20;;;;;;;55.77;21.70;;;;;;;0.69;98.08;101318.53;5020012;56;1177240;-72
2023/04/05 03:04:25;;;;;;;50.43;16.53;;;;;;;0.70;98.37;101308.53;5075137;56;1138943;-68
2023/04/05 03:09:33;;;;;;;43.50;16.53;;;;;;;0.72;98.28;101313.25;5117883;56;1138780;-68
2023/04/05 03:14:41;;;;;;;45.78;19.23;;;;;;;0.75;98.52;101317.53;5023461;56;1138747;-70
2023/04/05 03:19:48;;;;;;;36.27;13.90;;;;;;;0.86;98.92;101319.42;5016554;57;1138806;-68
2023/04/05 03:24:56;;;;;;;36.33;15.05;;;;;;;0.93;99.04;101310.09;5054153;57;1138932;-66
2023/04/05 03:30:02;;;;;;;27.40;11.83;;;;;;;1.03;99.04;101310.73;4864809;58;1138832;-66
2023/04/05 03:35:09;;;;;;;22.27;8.83;;;;;;;1.03;98.64;101311.59;4999623;57;1138740;-65
2023/04/05 03:40:15;;;;;;;27.87;9.97;;;;;;;0.94;97.83;101305.74;4802353;60;1136803;-67
2023/04/05 03:45:21;;;;;;;32.00;10.10;;;;;;;0.79;97.92;101300.92;4780336;60;1136894;-68
2023/04/05 03:50:27;;;;;;;24.00;9.40;;;;;;;0.75;98.45;101298.87;4850904;59;1138792;-67
2023/04/05 03:55:33;;;;;;;25.50;10.30;;;;;;;0.82;99.11;101296.95;4727572;61;1136752;-68
2023/04/05 04:00:40;;;;;;;22.43;8.17;;;;;;;0.89;99.45;101288.95;4850948;59;1139067;-65
2023/04/05 04:05:50;;;;;;;21.63;8.13;;;;;;;0.94;99.42;101294.88;4849817;58;1136723;-69
2023/04/05 04:10:57;;;;;;;19.67;8.03;;;;;;;0.94;99.48;101288.38;4995700;58;1136693;-68
2023/04/05 04:16:05;;;;;;;21.13;8.67;;;;;;;0.98;99.90;101286.10;4789150;58;1136664;-67
2023/04/05 04:21:31;;;;;;;18.77;8.85;;;;;;;0.90;99.27;101288.06;4801125;60;1136723;-67
2023/04/05 04:26:46;;;;;;;26.33;9.60;;;;;;;0.88;99.68;101295.50;4858109;57;1136679;-65
2023/04/05 04:32:09;;;;;;;73.70;25.37;;;;;;;0.74;99.37;101304.97;4896242;58;1136612;-66
2023/04/05 04:37:21;;;;;;;31.85;12.58;;;;;;;0.56;99.73;101299.75;4807409;59;1138878;-73
2023/04/05 04:42:37;;;;;;;36.55;11.12;;;;;;;0.50;100.00;101301.19;4889783;58;1138843;-71
2023/04/05 04:47:53;;;;;;;24.90;10.43;;;;;;;0.48;100.00;101300.36;4856535;58;1140935;-70
2023/04/05 04:53:10;;;;;;;28.47;9.07;;;;;;;0.50;100.00;101310.30;4864026;58;1141102;-68
2023/04/05 04:58:17;;;;;;;14.77;6.90;;;;;;;0.39;100.00;101319.25;4930084;57;1138893;-69
2023/04/05 05:03:25;;;;;;;27.57;8.73;;;;;;;0.27;100.00;101317.79;4908668;57;1138859;-68
2023/04/05 05:08:30;;;;;;;25.23;9.80;;;;;;;0.27;100.00;101312.14;4928075;58;1138968;-71
2023/04/05 05:13:36;;;;;;;28.92;10.75;;;;;;;0.36;100.00;101312.36;4956596;57;1138937;-69
2023/04/05 05:18:44;;;;;;;40.00;10.73;;;;;;;0.42;100.00;101303.58;4899586;57;1140902;-71
2023/04/05 05:23:49;;;;;;;18.53;7.33;;;;;;;0.42;100.00;101303.58;4932963;56;1140880;-71
2023/04/05 05:28:55;;;;;;;23.90;7.97;;;;;;;0.57;100.00;101313.62;5000716;57;1138826;-68
2023/04/05 05:34:02;;;;;;;25.83;8.53;;;;;;;0.62;100.00;101302.19;4988413;57;1138784;-69
2023/04/05 05:39:08;;;;;;;20.03;7.40;;;;;;;0.72;100.00;101316.30;4924268;56;1139214;-71
2023/04/05 05:44:14;;;;;;;20.23;8.03;;;;;;;0.76;100.00;101324.02;4965426;56;1138813;-71
2023/04/05 05:49:20;;;;;;;25.03;8.73;;;;;;;0.78;100.00;101323.95;4955046;57;1138864;-71
2023/04/05 05:54:26;;;;;;;36.33;11.03;;;;;;;0.86;100.00;101323.33;4988557;57;1138666;-72
2023/04/05 05:59:32;;;;;;;29.85;11.85;;;;;;;1.05;100.00;101318.07;4996897;55;1150689;-69
2023/04/05 06:04:37;;;;;;;29.00;11.10;;;;;;;1.28;100.00;101320.91;4912825;57;1141003;-68
2023/04/05 06:09:44;;;;;;;32.15;10.18;;;;;;;1.52;100.00;101328.54;4907764;58;1140807;-69
2023/04/05 06:14:49;;;;;;;23.87;10.17;;;;;;;1.66;100.00;101313.81;4981060;57;1149902;-70
2023/04/05 06:19:55;;;;;;;33.73;12.23;;;;;;;1.83;100.00;101318.55;5001165;57;1140845;-72
2023/04/05 06:25:00;;;;;;;31.97;12.13;;;;;;;1.72;100.00;101327.52;4950705;58;1140788;-69
2023/04/05 06:30:07;;;;;;;29.23;9.77;;;;;;;1.76;100.00;101319.16;4950690;58;1140842;-68
2023/04/05 06:35:14;;;;;;;25.83;10.20;;;;;;;2.05;100.00;101324.84;4961091;57;1138906;-69
2023/04/05 06:40:20;;;;;;;23.07;8.40;;;;;;;2.28;100.00;101313.27;5037008;57;1140888;-69
2023/04/05 06:45:26;;;;;;;13.30;6.47;;;;;;;2.45;98.91;101326.62;5037125;57;1138770;-72
2023/04/05 06:50:32;;;;;;;17.43;6.77;;;;;;;2.58;96.41;101330.19;5057613;57;1136949;-65
2023/04/05 06:55:37;;;;;;;12.90;5.78;;;;;;;2.68;95.67;101332.89;5037821;57;1136624;-71
2023/04/05 07:00:43;;;;;;;13.72;5.22;;;;;;;2.80;90.91;101334.66;5038221;57;1136653;-72
2023/04/05 07:05:57;;;;;;;11.67;4.97;;;;;;;2.96;89.27;101336.31;5038603;57;1136647;-69
2023/04/05 07:11:03;;;;;;;11.30;3.93;;;;;;;3.08;85.39;101331.98;5056756;57;1136881;-71
2023/04/05 07:16:09;;;;;;;9.97;3.93;;;;;;;3.12;83.27;101339.27;4935528;57;1136903;-75
2023/04/05 07:21:16;;;;;;;7.65;4.37;;;;;;;3.22;79.05;101333.27;4896664;58;1134695;-69
2023/04/05 07:26:21;;;;;;;5.40;2.90;;;;;;;3.31;81.80;101333.82;4815761;59;1134552;-68
2023/04/05 07:31:27;;;;;;;16.20;3.83;;;;;;;3.51;80.78;101334.44;4874375;59;1134576;-70
2023/04/05 07:36:33;;;;;;;8.60;3.10;;;;;;;3.60;80.64;101327.56;4947130;57;1136717;-71
2023/04/05 07:41:39;;;;;;;6.95;3.50;;;;;;;3.76;77.42;101326.55;5090856;57;1135088;-72
2023/04/05 07:46:44;;;;;;;8.03;3.37;;;;;;;3.73;77.92;101327.52;5065225;57;1134642;-71
2023/04/05 07:51:50;;;;;;;13.38;4.17;;;;;;;3.83;75.63;101334.56;5016219;56;1134904;-67
2023/04/05 07:56:57;;;;;;;15.03;5.60;;;;;;;3.94;76.10;101328.95;4997358;57;1136633;-71
2023/04/05 08:02:03;;;;;;;7.43;2.73;;;;;;;4.06;74.29;101328.48;4980897;57;1136632;-74
2023/04/05 08:07:08;;;;;;;7.72;4.37;;;;;;;4.19;75.50;101328.41;4999419;57;1134553;-72
2023/04/05 08:12:14;;;;;;;11.97;3.60;;;;;;;4.38;75.11;101322.88;5003556;56;1134777;-69
2023/04/05 08:17:19;;;;;;;11.53;3.40;;;;;;;4.59;74.41;101329.00;4996386;57;1136722;-78
2023/04/05 08:22:28;;;;;;;10.77;2.80;;;;;;;4.66;72.84;101323.93;4987591;57;1136890;-77
2023/04/05 08:27:33;;;;;;;13.17;4.23;;;;;;;4.78;71.85;101326.51;5001347;57;1136681;-76
2023/04/05 08:32:39;;;;;;;6.35;3.42;;;;;;;4.75;71.74;101322.69;4988712;57;1136632;-79
2023/04/05 08:37:47;;;;;;;9.93;4.03;;;;;;;4.59;70.31;101332.48;4985163;57;1134642;-73
2023/04/05 08:42:57;;;;;;;7.37;3.80;;;;;;;4.45;69.92;101325.63;4934867;57;1134783;-79
2023/04/05 08:48:03;;;;;;;9.87;3.27;;;;;;;4.40;70.65;101324.98;4974271;58;1134579;-75
2023/04/05 08:53:12;;;;;;;9.07;3.90;;;;;;;4.38;71.46;101322.88;4864897;58;1134717;-76
2023/04/05 08:58:21;;;;;;;7.37;3.43;;;;;;;4.40;69.81;101329.36;4957677;57;1134690;-75
2023/04/05 09:03:31;;;;;;;10.33;4.07;;;;;;;4.40;71.97;101326.28;4964851;57;1134570;-76
2023/04/05 09:08:38;;;;;;;8.67;3.77;;;;;;;4.60;76.53;101320.23;4859458;58;1136755;-77
2023/04/05 09:13:43;;;;;;;9.70;3.33;;;;;;;5.01;75.69;101323.80;4816902;59;1134713;-75
2023/04/05 09:18:49;;;;;;;7.58;2.98;;;;;;;5.06;72.49;101319.66;4952152;57;1134974;-75
2023/04/05 09:23:55;;;;;;;13.30;3.57;;;;;;;4.82;72.52;101325.47;4889844;58;1134885;-75
2023/04/05 09:29:03;;;;;;;15.87;6.63;;;;;;;4.71;73.01;101326.38;4957511;58;1136634;-76
2023/04/05 09:34:08;;;;;;;6.17;2.93;;;;;;;4.64;74.08;101331.45;4969854;57;1136844;-77
2023/04/05 09:39:19;;;;;;;13.97;4.07;;;;;;;4.57;72.26;101333.02;4933246;58;1134807;-75
2023/04/05 09:44:21;;;;;;;9.47;2.97;;;;;;;4.54;72.03;101332.29;5051322;57;1136772;-75
2023/04/05 09:49:35;;;;;;;8.10;4.10;;;;;;;4.55;73.54;101335.31;4913685;58;1134697;-74
2023/04/05 09:54:44;;;;;;;11.94;4.48;;;;;;;4.60;75.14;101338.58;5060819;56;1134669;-76
2023/04/05 09:59:50;;;;;;;12.63;5.08;;;;;;;4.58;72.86;101336.50;5102653;56;1136667;-79
2023/04/05 10:04:55;;;;;;;11.75;4.65;;;;;;;4.51;70.80;101346.35;5094651;56;1136901;-73
2023/04/05 10:10:04;;;;;;;7.93;2.90;;;;;;;4.51;72.33;101339.80;5094280;56;1136675;-76
2023/04/05 10:15:13;;;;;;;12.40;3.80;;;;;;;4.50;73.51;101335.94;5121598;55;1134777;-77
2023/04/05 10:20:24;;;;;;;8.53;3.23;;;;;;;4.52;72.54;101332.34;5026706;56;1136679;-78
2023/04/05 10:25:49;;;;;;;5.67;3.87;;;;;;;4.43;72.74;101330.56;5008856;57;1134484;-74
2023/04/05 10:31:15;;;;;;;8.63;3.10;;;;;;;4.56;71.98;101326.08;4886407;57;1135138;-73
2023/04/05 10:36:36;;;;;;;7.73;3.57;;;;;;;4.67;71.79;101330.03;4921836;56;1134561;-75
2023/04/05 10:41:43;;;;;;;14.27;4.90;;;;;;;4.97;70.55;101320.05;4864805;58;1134854;-76
2023/04/05 10:46:50;;;;;;;8.13;3.72;;;;;;;5.01;68.19;101319.88;4843838;58;1136826;-76
2023/04/05 10:51:56;;;;;;;26.73;16.87;;;;;;;4.94;67.98;101320.58;4865047;58;1134825;-78
2023/04/05 10:57:05;;;;;;;24.37;18.30;;;;;;;4.90;69.77;101330.78;4954552;57;1138702;-77
2023/04/05 11:02:11;;;;;;;8.40;3.90;;;;;;;5.03;71.11;101320.67;4933884;57;1138674;-75
2023/04/05 11:07:20;;;;;;;9.50;3.47;;;;;;;5.34;69.30;101317.59;4788464;58;1134775;-79
2023/04/05 11:12:51;;;;;;;12.73;5.50;;;;;;;5.64;66.68;101310.15;4989693;57;1134686;-77
2023/04/05 11:18:12;;;;;;;45.07;29.73;;;;;;;6.07;69.61;101309.55;4948796;58;1136664;-76
2023/04/05 11:23:20;;;;;;;9.47;3.70;;;;;;;6.47;67.60;101311.98;4863341;59;1138833;-77
2023/04/05 11:28:39;;;;;;;7.67;3.63;;;;;;;6.60;64.49;101310.92;5035197;57;1134607;-78
2023/04/05 11:34:09;;;;;;;15.78;6.03;;;;;;;6.78;65.41;101311.81;4864353;59;1134768;-75
2023/04/05 11:39:24;;;;;;;11.13;2.97;;;;;;;7.03;66.16;101302.62;5015199;57;1136623;-75
2023/04/05 11:44:44;;;;;;;4.40;3.17;;;;;;;7.39;63.87;101298.58;4993744;57;1136752;-76
2023/04/05 11:49:51;;;;;;;8.40;3.27;;;;;;;7.58;64.78;101301.11;4788963;59;1134557;-75
2023/04/05 11:54:57;;;;;;;17.23;3.08;;;;;;;7.55;62.30;101299.09;4935279;58;1134581;-75
2023/04/05 12:00:03;;;;;;;10.00;3.40;;;;;;;7.34;61.71;101307.17;4883735;59;1136723;-77
2023/04/05 12:05:10;;;;;;;6.90;3.20;;;;;;;7.06;61.66;101308.19;4864647;59;1136848;-76
2023/04/05 12:10:17;;;;;;;10.57;2.93;;;;;;;6.92;61.43;101306.72;4885850;58;1134711;-80
2023/04/05 12:15:23;;;;;;;8.00;3.37;;;;;;;6.82;59.36;101311.59;4888363;58;1136667;-77
2023/04/05 12:20:29;;;;;;;7.77;4.73;;;;;;;6.86;57.48;101304.41;4907004;58;1134803;-76
2023/04/05 12:25:37;;;;;;;10.57;4.00;;;;;;;6.77;59.57;101300.91;5015428;56;1134592;-77
2023/04/05 12:30:59;;;;;;;5.42;2.87;;;;;;;6.70;58.70;101292.48;4995907;57;1136836;-79
2023/04/05 12:36:10;;;;;;;10.73;3.67;;;;;;;6.78;59.90;101282.43;4998720;58;1134644;-80
2023/04/05 12:41:16;;;;;;;7.60;3.93;;;;;;;7.06;61.22;101275.31;5018231;58;1136648;-78
2023/04/05 12:46:22;;;;;;;4.30;2.60;;;;;;;7.21;57.55;101268.42;5031467;57;1134591;-76
2023/04/05 12:51:29;;;;;;;3.90;2.60;;;;;;;7.06;52.48;101272.22;5069435;57;1134611;-78
2023/04/05 12:56:34;;;;;;;8.33;2.97;;;;;;;6.91;55.10;101279.57;5033840;56;1134660;-73
2023/04/05 13:01:40;;;;;;;12.77;3.67;;;;;;;6.90;59.71;101266.50;5088110;56;1145014;-75
2023/04/05 13:06:47;;;;;;;9.53;4.05;;;;;;;6.90;59.71;101266.50;5094016;56;1136662;-74
2023/04/05 13:11:53;;;;;;;8.10;3.55;;;;;;;7.27;58.74;101266.80;5062123;56;1134795;-75
2023/04/05 13:16:58;;;;;;;6.90;2.97;;;;;;;7.68;58.75;101259.33;5090641;57;1134640;-78
2023/04/05 13:22:04;;;;;;;9.20;4.17;;;;;;;7.93;57.64;101263.67;5070356;57;1134748;-80
2023/04/05 13:27:10;;;;;;;13.93;7.57;;;;;;;7.98;57.20;101260.77;4986084;57;1134603;-79
2023/04/05 13:32:15;;;;;;;6.33;3.00;;;;;;;8.11;57.78;101263.95;5003809;57;1136881;-73
2023/04/05 13:37:21;;;;;;;7.90;3.00;;;;;;;8.23;55.01;101262.91;4971033;57;1134549;-75
2023/04/05 13:42:27;;;;;;;9.13;2.90;;;;;;;8.19;56.51;101260.06;4965672;57;1134651;-78
2023/04/05 13:47:32;;;;;;;4.77;2.60;;;;;;;8.27;53.67;101254.73;4951620;57;1134684;-77
2023/04/05 13:52:38;;;;;;;5.17;3.03;;;;;;;8.32;56.24;101250.09;4969918;57;1134669;-76
2023/04/05 13:57:44;;;;;;;5.70;2.87;;;;;;;8.49;55.67;101247.81;4995768;57;1134821;-74
2023/04/05 14:02:51;;;;;;;4.20;2.50;;;;;;;8.68;57.04;101237.91;4874853;57;1134733;-77
2023/04/05 14:07:57;;;;;;;11.57;3.50;;;;;;;8.87;54.37;101246.05;4808770;59;1134704;-72
2023/04/05 14:13:02;;;;;;;9.30;3.80;;;;;;;8.78;53.46;101239.06;4783059;60;1136579;-78
2023/04/05 14:18:08;;;;;;;7.53;3.93;;;;;;;8.93;55.15;101243.05;4912718;57;1134545;-81
2023/04/05 14:23:14;;;;;;;25.43;7.37;;;;;;;8.86;51.71;101239.09;4911806;58;1134557;-75
2023/04/05 14:28:19;;;;;;;11.10;3.57;;;;;;;8.46;50.74;101245.34;4796240;60;1136681;-77
2023/04/05 14:33:26;;;;;;;9.90;3.33;;;;;;;8.03;48.84;101241.62;4792392;59;1136688;-76
2023/04/05 14:38:31;;;;;;;4.10;2.33;;;;;;;7.80;50.46;101245.50;4802126;59;1134610;-79
2023/04/05 14:43:39;;;;;;;6.13;2.10;;;;;;;7.71;51.44;101253.91;4953690;57;1134516;-75
2023/04/05 14:48:45;;;;;;;8.53;3.12;;;;;;;7.60;51.53;101251.86;4828877;58;1134506;-75
2023/04/05 14:53:51;;;;;;;6.90;2.80;;;;;;;7.58;51.32;101247.14;4934620;57;1134551;-75
2023/04/05 14:58:57;;;;;;;10.43;3.80;;;;;;;7.64;52.42;101250.74;4916921;57;1134684;-77
2023/04/05 15:04:03;;;;;;;10.73;4.87;;;;;;;7.58;51.23;101246.30;4944128;57;1136855;-74
2023/04/05 15:09:09;;;;;;;28.17;13.77;;;;;;;7.52;52.30;101246.14;4825056;58;1136696;-75
2023/04/05 15:14:15;;;;;;;9.13;4.60;;;;;;;7.55;53.67;101248.62;4958105;57;1138749;-77
2023/04/05 15:19:20;;;;;;;6.63;4.50;;;;;;;7.59;52.59;101248.00;4828409;59;1134482;-78
2023/04/05 15:24:26;;;;;;;6.73;3.37;;;;;;;7.50;53.72;101241.88;4953514;56;1134568;-78
2023/04/05 15:29:33;;;;;;;13.43;3.63;;;;;;;7.44;51.21;101244.86;4881258;57;1134803;-78
2023/04/05 15:34:39;;;;;;;5.53;3.30;;;;;;;7.57;51.27;101249.86;4953090;56;1136943;-78
2023/04/05 15:39:45;;;;;;;10.17;5.30;;;;;;;7.57;51.27;101249.86;4836681;58;1134789;-78
2023/04/05 15:44:51;;;;;;;14.07;6.85;;;;;;;7.71;52.59;101249.50;4981288;56;1136960;-75
2023/04/05 15:49:57;;;;;;;5.07;2.70;;;;;;;7.88;51.99;101253.85;5017483;56;1136828;-76
2023/04/05 15:55:03;;;;;;;12.47;4.37;;;;;;;7.99;52.26;101257.20;4999483;57;1134521;-72
2023/04/05 16:00:11;;;;;;;18.48;7.83;;;;;;;8.03;50.30;101260.06;5040522;57;1136891;-79
2023/04/05 16:05:16;;;;;;;6.10;3.77;;;;;;;8.03;51.51;101259.59;5062204;56;1136766;-78
2023/04/05 16:10:22;;;;;;;3.42;2.35;;;;;;;8.04;49.98;101261.30;5044469;57;1134720;-73
2023/04/05 16:15:28;;;;;;;14.60;5.12;;;;;;;8.06;50.81;101254.16;4988790;57;1134746;-76
2023/04/05 16:20:33;;;;;;;5.30;2.90;;;;;;;8.04;50.18;101259.98;5006295;56;1136639;-76
2023/04/05 16:25:39;;;;;;;5.50;3.42;;;;;;;8.01;50.53;101263.23;5052266;56;1134808;-75
2023/04/05 16:30:46;;;;;;;11.57;4.13;;;;;;;7.94;50.11;101265.38;5002593;57;1134615;-76
2023/04/05 16:35:51;;;;;;;14.03;4.00;;;;;;;7.92;49.93;101264.61;4940957;58;1136669;-70
2023/04/05 16:40:58;;;;;;;23.50;6.85;;;;;;;7.82;50.71;101265.17;4962682;58;1136843;-71
2023/04/05 16:46:03;;;;;;;29.63;11.07;;;;;;;7.72;51.48;101264.83;4881350;58;1136819;-71
2023/04/05 16:51:09;;;;;;;29.63;10.60;;;;;;;7.67;51.23;101266.84;4869412;58;1139069;-68
2023/04/05 16:56:15;;;;;;;21.70;9.00;;;;;;;7.60;51.06;101275.55;4966048;57;1138989;-68
2023/04/05 17:01:20;;;;;;;13.13;7.20;;;;;;;7.49;53.09;101275.25;4790327;58;1137101;-69
2023/04/05 17:06:27;;;;;;;32.93;18.73;;;;;;;7.37;54.28;101276.75;4941396;57;1136846;-73
2023/04/05 17:11:33;;;;;;;19.87;10.50;;;;;;;7.25;54.95;101284.44;4850952;58;1138945;-74
2023/04/05 17:16:39;;;;;;;21.57;9.87;;;;;;;7.07;55.45;101288.85;4939757;58;1138938;-76
2023/04/05 17:21:51;;;;;;;61.33;27.43;;;;;;;6.89;56.34;101291.09;4983736;57;1136851;-78
2023/04/05 17:26:53;;;;;;;76.47;32.13;;;;;;;6.69;57.00;101295.58;4955391;57;1139243;-76
2023/04/05 17:31:59;;;;;;;58.80;27.80;;;;;;;6.50;57.69;101300.02;4963899;57;1138795;-76
2023/04/05 17:37:05;;;;;;;36.77;20.43;;;;;;;6.34;58.32;101301.67;4944693;57;1139030;-76
2023/04/05 17:42:11;;;;;;;65.73;33.10;;;;;;;6.19;58.95;101308.50;4782864;59;1138842;-77
2023/04/05 17:47:16;;;;;;;49.67;18.33;;;;;;;6.05;59.56;101314.86;5047054;57;1139047;-75
2023/04/05 17:52:22;;;;;;;18.13;7.20;;;;;;;5.65;59.66;101317.92;4871764;58;1138768;-77
2023/04/05 17:57:28;;;;;;;18.27;6.57;;;;;;;5.65;59.66;101317.92;4889061;58;1136721;-76
2023/04/05 18:02:36;;;;;;;14.93;6.07;;;;;;;5.60;60.48;101333.50;5070622;57;1136772;-77
2023/04/05 18:07:41;;;;;;;13.05;5.05;;;;;;;5.50;60.90;101340.09;5022115;57;1136891;-77
2023/04/05 18:12:47;;;;;;;10.18;4.17;;;;;;;5.39;61.30;101351.47;4971123;57;1136832;-78
2023/04/05 18:17:53;;;;;;;11.73;3.77;;;;;;;5.27;61.66;101352.41;4952635;56;1137371;-77
2023/04/05 18:23:02;;;;;;;8.85;4.30;;;;;;;5.13;62.06;101355.20;4859609;58;1136967;-77
2023/04/05 18:28:08;;;;;;;9.60;3.70;;;;;;;5.02;62.27;101355.66;4847630;58;1134777;-76
2023/04/05 18:33:13;;;;;;;16.75;4.60;;;;;;;4.88;62.69;101363.24;4915545;56;1134927;-69
2023/04/05 18:38:20;;;;;;;16.07;5.00;;;;;;;4.77;63.15;101366.27;5037657;57;1136703;-69
2023/04/05 18:43:26;;;;;;;21.60;4.83;;;;;;;4.69;63.37;101374.05;4943297;56;1136914;-71
2023/04/05 18:48:37;;;;;;;7.33;3.83;;;;;;;4.59;63.70;101375.70;4797993;59;1137468;-70
2023/04/05 18:53:39;;;;;;;14.47;4.57;;;;;;;4.52;64.08;101380.80;4882964;59;1134727;-70
2023/04/05 18:58:45;;;;;;;10.60;4.80;;;;;;;4.46;64.34;101385.41;4937915;58;1136779;-68
2023/04/05 19:03:51;;;;;;;17.17;6.67;;;;;;;4.38;64.21;101385.73;4956633;57;1136874;-73
2023/04/05 19:08:57;;;;;;;23.77;10.10;;;;;;;4.35;64.62;101393.69;5016660;57;1136704;-70
2023/04/05 19:14:02;;;;;;;66.27;28.87;;;;;;;4.31;64.87;101392.09;4842853;57;1138809;-67
2023/04/05 19:19:08;;;;;;;112.87;41.27;;;;;;;4.27;65.10;101387.91;4924070;58;1138799;-67
2023/04/05 19:24:14;;;;;;;177.20;62.67;;;;;;;4.21;65.57;101393.36;4956495;57;1140977;-67
2023/04/05 19:29:19;;;;;;;182.63;60.80;;;;;;;4.13;65.66;101396.70;4942526;57;1141004;-68
2023/04/05 19:34:25;;;;;;;138.80;47.08;;;;;;;4.08;66.02;101395.58;4954373;57;1140992;-70
2023/04/05 19:39:31;;;;;;;50.63;16.33;;;;;;;4.01;66.32;101395.39;4956013;58;1140993;-69
2023/04/05 19:44:56;;;;;;;34.00;16.03;;;;;;;3.94;66.61;101408.31;4942721;57;1138908;-71
2023/04/05 19:50:02;;;;;;;67.33;29.03;;;;;;;3.88;67.10;101410.69;4865191;58;1138891;-68
2023/04/05 19:55:33;;;;;;;92.97;39.33;;;;;;;3.81;67.71;101403.98;5019055;57;1138774;-69
2023/04/05 20:00:51;;;;;;;37.10;13.93;;;;;;;3.75;67.75;101400.27;4889920;58;1138981;-67
2023/04/05 20:06:13;;;;;;;46.27;18.80;;;;;;;3.70;67.96;101398.70;5023297;57;1138965;-68
2023/04/05 20:11:21;;;;;;;104.03;41.70;;;;;;;3.65;68.46;101401.50;5025286;57;1138995;-71
2023/04/05 20:16:29;;;;;;;81.25;33.25;;;;;;;3.60;68.83;101401.25;4971977;57;1140813;-67
2023/04/05 20:21:37;;;;;;;93.90;38.60;;;;;;;3.55;69.05;101392.25;4934807;57;1138824;-69
2023/04/05 20:26:44;;;;;;;132.90;45.87;;;;;;;3.55;69.41;101392.25;4865450;58;1138764;-69
2023/04/05 20:31:51;;;;;;;110.70;35.52;;;;;;;3.56;69.54;101392.65;4878519;58;1141151;-76
2023/04/05 20:37:01;;;;;;;67.67;28.50;;;;;;;3.58;69.71;101389.98;4881564;58;1141039;-77
2023/04/05 20:42:08;;;;;;;85.80;34.37;;;;;;;3.59;69.64;101383.84;4929208;57;1138914;-76
2023/04/05 20:47:14;;;;;;;512.77;201.33;;;;;;;3.57;69.46;101378.66;4933368;57;1138800;-76
2023/04/05 20:52:19;;;;;;;73.33;32.43;;;;;;;3.56;69.26;101377.41;4883303;58;1143185;-76
2023/04/05 20:57:25;;;;;;;98.57;48.27;;;;;;;3.52;69.47;101381.43;4867651;58;1138839;-75
2023/04/05 21:02:31;;;;;;;257.73;100.73;;;;;;;3.49;69.58;101371.10;5020908;57;1139026;-75
2023/04/05 21:07:37;;;;;;;238.27;80.03;;;;;;;3.48;69.53;101366.78;4932168;58;1143084;-75
2023/04/05 21:12:42;;;;;;;242.87;77.27;;;;;;;3.46;69.53;101362.50;5014110;56;1140923;-75
2023/04/05 21:17:48;;;;;;;189.40;67.77;;;;;;;3.38;69.39;101369.29;4837034;58;1141463;-77
2023/04/05 21:22:54;;;;;;;132.60;38.23;;;;;;;3.32;69.29;101358.20;5024705;56;1141072;-76
2023/04/05 21:28:01;;;;;;;108.30;28.93;;;;;;;3.28;69.29;101361.38;4910799;58;1261206;-76
2023/04/05 21:33:07;;;;;;;162.35;45.60;;;;;;;3.26;69.31;101351.41;4818510;59;1140734;-74
2023/04/05 21:38:13;;;;;;;186.50;47.60;;;;;;;3.21;69.07;101353.80;4807137;59;1141078;-74
2023/04/05 21:43:18;;;;;;;178.20;50.90;;;;;;;3.14;69.23;101354.45;4831293;59;1141092;-76
2023/04/05 21:48:26;;;;;;;138.40;46.33;;;;;;;3.06;69.26;101348.61;4818227;59;1141056;-76
2023/04/05 21:53:31;;;;;;;99.50;34.23;;;;;;;3.02;69.75;101351.80;4818429;58;1141024;-76
2023/04/05 21:58:37;;;;;;;215.20;78.37;;;;;;;3.01;69.83;101350.09;4826103;59;1138877;-76
2023/04/05 22:03:43;;;;;;;63.73;23.03;;;;;;;3.05;70.15;101350.84;4956456;58;1140791;-76
2023/04/05 22:08:51;;;;;;;67.87;26.70;;;;;;;3.08;70.16;101346.34;4814328;59;1138790;-76
2023/04/05 22:13:56;;;;;;;59.80;23.73;;;;;;;3.12;70.42;101344.50;4828545;59;1138981;-76
2023/04/05 22:19:02;;;;;;;98.55;40.98;;;;;;;3.13;70.42;101353.59;4850320;59;1138846;-77
2023/04/05 22:24:09;;;;;;;59.20;22.22;;;;;;;3.03;71.12;101363.11;4815717;59;1138824;-76
2023/04/05 22:29:15;;;;;;;87.08;30.05;;;;;;;3.03;71.12;101363.11;4939250;58;1138969;-76
2023/04/05 22:34:21;;;;;;;89.10;31.97;;;;;;;2.98;71.18;101363.25;4953632;57;1138967;-76
2023/04/05 22:39:26;;;;;;;57.20;21.83;;;;;;;2.96;71.53;101366.36;4933675;57;1138831;-77
2023/04/05 22:44:32;;;;;;;38.93;15.03;;;;;;;2.94;72.00;101367.31;5025823;56;1138799;-76
2023/04/05 22:49:38;;;;;;;43.40;16.07;;;;;;;2.89;72.24;101370.55;4896319;58;1138750;-76
2023/04/05 22:54:44;;;;;;;50.00;17.33;;;;;;;2.80;72.38;101369.06;5014865;57;1138836;-76
2023/04/05 22:59:49;;;;;;;63.40;21.47;;;;;;;2.69;72.52;101365.50;4886318;58;1139094;-76
2023/04/05 23:04:56;;;;;;;50.10;17.35;;;;;;;2.59;72.50;101364.53;4903536;57;1138994;-76
2023/04/05 23:10:02;;;;;;;32.13;13.17;;;;;;;2.50;72.87;101373.48;4929781;57;1138812;-76
2023/04/05 23:15:08;;;;;;;43.63;16.62;;;;;;;2.42;72.79;101378.96;4994148;57;1138865;-76